Terminal Aerodrome Forecast
Issued by NWS Billings, MT

Home | Current Version | Previous Version | Text Only | Print | Product List | Glossary On
Versions: 1 2 3 4 5 6 7 8 9 10 11 12 13 14 15 16 17 18 19 20 21 22 23 24 25 26 27 28 29 30 31 32 33
000
FTUS45 KBYZ 230539
TAFSHR
TAF
KSHR 230539Z 2306/2406 VRB04KT P6SM SCT200 WS009/30037KT
     FM231700 VRB06KT P6SM VCSH BKN050
     FM232000 VRB06KT 6SM -SN BR BKN015 OVC030
     FM240000 34014G24KT 2SM -SN BR BKN008 OVC012=

USA.gov is the U.S. government's official web portal to all federal, state and local government web resources and services.